sensor_id;sensor_type;location;lat;lon;timestamp;pressure;altitude;pressure_sealevel;temperature;humidity
6449;BME280;3257;52.298;13.690;2022-12-10T00:01:39;78075.38;;;-144.77;87.45
6449;BME280;3257;52.298;13.690;2022-12-10T00:04:06;78069.41;;;-144.77;86.87
6449;BME280;3257;52.298;13.690;2022-12-10T00:06:35;78079.34;;;-144.77;87.08
6449;BME280;3257;52.298;13.690;2022-12-10T00:09:04;78085.31;;;-144.77;87.18
6449;BME280;3257;52.298;13.690;2022-12-10T00:11:31;78075.38;;;-144.77;87.51
6449;BME280;3257;52.298;13.690;2022-12-10T00:13:58;78087.31;;;-144.77;87.71
6449;BME280;3257;52.298;13.690;2022-12-10T00:16:27;78073.41;;;-144.77;87.70
6449;BME280;3257;52.298;13.690;2022-12-10T00:18:54;78063.44;;;-144.77;87.57
6449;BME280;3257;52.298;13.690;2022-12-10T00:21:24;78097.25;;;-144.77;87.08
6449;BME280;3257;52.298;13.690;2022-12-10T00:23:51;78073.41;;;-144.77;87.22
6449;BME280;3257;52.298;13.690;2022-12-10T00:26:27;78081.34;;;-144.77;87.27
6449;BME280;3257;52.298;13.690;2022-12-10T00:28:55;78089.28;;;-144.77;87.69
6449;BME280;3257;52.298;13.690;2022-12-10T00:31:27;78081.34;;;-144.77;87.49
6449;BME280;3257;52.298;13.690;2022-12-10T00:33:56;78079.34;;;-144.77;87.56
6449;BME280;3257;52.298;13.690;2022-12-10T00:36:26;78071.41;;;-144.77;87.43
6449;BME280;3257;52.298;13.690;2022-12-10T00:38:53;78083.34;;;-144.77;87.30
6449;BME280;3257;52.298;13.690;2022-12-10T00:41:20;78081.34;;;-144.77;87.06
6449;BME280;3257;52.298;13.690;2022-12-10T00:43:47;78073.41;;;-144.77;87.01
6449;BME280;3257;52.298;13.690;2022-12-10T00:46:15;78083.34;;;-144.77;86.72
6449;BME280;3257;52.298;13.690;2022-12-10T00:48:43;78079.34;;;-144.77;87.46
6449;BME280;3257;52.298;13.690;2022-12-10T00:51:20;78095.25;;;-144.77;87.55
6449;BME280;3257;52.298;13.690;2022-12-10T00:53:49;78117.13;;;-144.77;87.29
6449;BME280;3257;52.298;13.690;2022-12-10T00:56:18;78123.09;;;-144.77;87.61
6449;BME280;3257;52.298;13.690;2022-12-10T00:58:46;78133.03;;;-144.77;87.27
6449;BME280;3257;52.298;13.690;2022-12-10T01:01:21;78150.94;;;-144.77;87.40
6449;BME280;3257;52.298;13.690;2022-12-10T01:03:50;78152.91;;;-144.77;87.67
6449;BME280;3257;52.298;13.690;2022-12-10T01:06:31;78168.81;;;-144.77;87.55
6449;BME280;3257;52.298;13.690;2022-12-10T01:09:00;78176.78;;;-144.77;87.92
6449;BME280;3257;52.298;13.690;2022-12-10T01:11:32;78204.59;;;-144.77;88.12
6449;BME280;3257;52.298;13.690;2022-12-10T01:13:59;78200.63;;;-144.77;88.80
6449;BME280;3257;52.298;13.690;2022-12-10T01:16:26;78222.50;;;-144.77;88.44
6449;BME280;3257;52.298;13.690;2022-12-10T01:18:54;78214.53;;;-144.77;88.28
6449;BME280;3257;52.298;13.690;2022-12-10T01:21:22;78232.44;;;-144.77;88.69
6449;BME280;3257;52.298;13.690;2022-12-10T01:23:50;78224.50;;;-144.77;88.70
6449;BME280;3257;52.298;13.690;2022-12-10T01:26:21;78232.44;;;-144.77;88.58
6449;BME280;3257;52.298;13.690;2022-12-10T01:28:48;78238.41;;;-144.77;88.72
6449;BME280;3257;52.298;13.690;2022-12-10T01:31:29;78234.44;;;-144.77;89.21
6449;BME280;3257;52.298;13.690;2022-12-10T01:33:57;78252.31;;;-144.77;89.07
6449;BME280;3257;52.298;13.690;2022-12-10T01:36:27;78234.44;;;-144.77;88.69
6449;BME280;3257;52.298;13.690;2022-12-10T01:38:54;78252.31;;;-144.77;88.84
6449;BME280;3257;52.298;13.690;2022-12-10T01:41:26;78244.38;;;-144.77;89.22
6449;BME280;3257;52.298;13.690;2022-12-10T01:43:56;78242.38;;;-144.77;89.17
6449;BME280;3257;52.298;13.690;2022-12-10T01:46:29;78246.34;;;-144.77;89.19
6449;BME280;3257;52.298;13.690;2022-12-10T01:48:56;78272.19;;;-144.77;89.07
6449;BME280;3257;52.298;13.690;2022-12-10T01:51:26;78282.16;;;-144.77;89.23
6449;BME280;3257;52.298;13.690;2022-12-10T01:53:54;78262.25;;;-144.77;89.34
6449;BME280;3257;52.298;13.690;2022-12-10T01:56:21;78292.09;;;-144.77;89.14
6449;BME280;3257;52.298;13.690;2022-12-10T01:58:51;78311.97;;;-144.77;89.79
6449;BME280;3257;52.298;13.690;2022-12-10T02:01:51;78323.91;;;-144.77;89.65
6449;BME280;3257;52.298;13.690;2022-12-10T02:04:29;78321.91;;;-144.77;89.82
6449;BME280;3257;52.298;13.690;2022-12-10T02:07:13;78331.84;;;-144.77;89.75
6449;BME280;3257;52.298;13.690;2022-12-10T02:12:40;78337.81;;;-144.77;90.39
6449;BME280;3257;52.298;13.690;2022-12-10T02:15:30;78347.75;;;-144.77;90.34
6449;BME280;3257;52.298;13.690;2022-12-10T02:18:07;78347.75;;;-144.77;90.36
6449;BME280;3257;52.298;13.690;2022-12-10T02:20:39;78347.75;;;-144.77;90.14
6449;BME280;3257;52.298;13.690;2022-12-10T02:23:14;78335.81;;;-144.77;90.12
6449;BME280;3257;52.298;13.690;2022-12-10T02:25:56;78339.81;;;-144.77;90.69
6449;BME280;3257;52.298;13.690;2022-12-10T02:28:35;78357.69;;;-144.77;90.23
6449;BME280;3257;52.298;13.690;2022-12-10T02:31:03;78337.81;;;-144.77;90.22
6449;BME280;3257;52.298;13.690;2022-12-10T02:33:31;78321.91;;;-144.77;89.81
6449;BME280;3257;52.298;13.690;2022-12-10T02:35:59;78298.06;;;-144.77;89.03
6449;BME280;3257;52.298;13.690;2022-12-10T02:38:29;78302.03;;;-144.77;88.43
6449;BME280;3257;52.298;13.690;2022-12-10T02:41:02;78294.06;;;-144.77;87.72
6449;BME280;3257;52.298;13.690;2022-12-10T02:43:31;78337.81;;;-144.77;88.62
6449;BME280;3257;52.298;13.690;2022-12-10T02:45:59;78349.75;;;-144.77;88.82
6449;BME280;3257;52.298;13.690;2022-12-10T02:48:28;78345.75;;;-144.77;88.91
6449;BME280;3257;52.298;13.690;2022-12-10T02:50:54;78359.69;;;-144.77;89.17
6449;BME280;3257;52.298;13.690;2022-12-10T02:53:20;78345.75;;;-144.77;89.33
6449;BME280;3257;52.298;13.690;2022-12-10T02:56:08;78365.66;;;-144.77;89.19
6449;BME280;3257;52.298;13.690;2022-12-10T02:59:15;78361.66;;;-144.77;89.14
6449;BME280;3257;52.298;13.690;2022-12-10T03:04:22;78403.44;;;-144.77;89.12
6449;BME280;3257;52.298;13.690;2022-12-10T03:06:54;78411.38;;;-144.77;89.53
6449;BME280;3257;52.298;13.690;2022-12-10T03:09:30;78383.53;;;-144.77;89.26
6449;BME280;3257;52.298;13.690;2022-12-10T03:12:19;78375.59;;;-144.77;89.24
6449;BME280;3257;52.298;13.690;2022-12-10T03:14:50;78349.75;;;-144.77;88.56
6449;BME280;3257;52.298;13.690;2022-12-10T03:17:17;78355.72;;;-144.77;88.48
6449;BME280;3257;52.298;13.690;2022-12-10T03:19:47;78353.72;;;-144.77;88.27
6449;BME280;3257;52.298;13.690;2022-12-10T03:22:17;78347.75;;;-144.77;88.05
6449;BME280;3257;52.298;13.690;2022-12-10T03:24:45;78345.75;;;-144.77;87.84
6449;BME280;3257;52.298;13.690;2022-12-10T03:27:15;78331.84;;;-144.77;87.53
6449;BME280;3257;52.298;13.690;2022-12-10T03:29:46;78327.88;;;-144.77;86.55
6449;BME280;3257;52.298;13.690;2022-12-10T03:32:14;78319.91;;;-144.77;87.20
6449;BME280;3257;52.298;13.690;2022-12-10T03:34:43;78339.81;;;-144.77;87.20
6449;BME280;3257;52.298;13.690;2022-12-10T03:37:11;78339.81;;;-144.77;87.65
6449;BME280;3257;52.298;13.690;2022-12-10T03:39:39;78323.91;;;-144.77;87.90
6449;BME280;3257;52.298;13.690;2022-12-10T03:42:06;78308.00;;;-144.77;87.54
6449;BME280;3257;52.298;13.690;2022-12-10T03:44:34;78317.94;;;-144.77;87.32
6449;BME280;3257;52.298;13.690;2022-12-10T03:47:02;78319.91;;;-144.77;87.07
6449;BME280;3257;52.298;13.690;2022-12-10T03:49:29;78319.91;;;-144.77;86.99
6449;BME280;3257;52.298;13.690;2022-12-10T03:51:56;78343.78;;;-144.77;87.45
6449;BME280;3257;52.298;13.690;2022-12-10T03:54:22;78363.66;;;-144.77;87.99
6449;BME280;3257;52.298;13.690;2022-12-10T03:56:49;78355.72;;;-144.77;88.56
6449;BME280;3257;52.298;13.690;2022-12-10T03:59:15;78355.72;;;-144.77;88.54
6449;BME280;3257;52.298;13.690;2022-12-10T04:01:42;78337.81;;;-144.77;88.99
6449;BME280;3257;52.298;13.690;2022-12-10T04:04:09;78317.94;;;-144.77;88.37
6449;BME280;3257;52.298;13.690;2022-12-10T04:06:37;78327.88;;;-144.77;87.67
6449;BME280;3257;52.298;13.690;2022-12-10T04:09:04;78321.91;;;-144.77;87.96
6449;BME280;3257;52.298;13.690;2022-12-10T04:11:31;78337.81;;;-144.77;87.79
6449;BME280;3257;52.298;13.690;2022-12-10T04:13:57;78339.81;;;-144.77;87.97
6449;BME280;3257;52.298;13.690;2022-12-10T04:16:42;78351.72;;;-144.77;88.10
6449;BME280;3257;52.298;13.690;2022-12-10T04:19:12;78345.75;;;-144.77;89.02
6449;BME280;3257;52.298;13.690;2022-12-10T04:21:39;78327.88;;;-144.77;88.80
6449;BME280;3257;52.298;13.690;2022-12-10T04:24:28;78325.88;;;-144.77;88.52
6449;BME280;3257;52.298;13.690;2022-12-10T04:29:46;78323.91;;;-144.77;88.88
6449;BME280;3257;52.298;13.690;2022-12-10T04:32:13;78288.09;;;-144.77;88.87
6449;BME280;3257;52.298;13.690;2022-12-10T04:34:40;78286.13;;;-144.77;88.65
6449;BME280;3257;52.298;13.690;2022-12-10T04:37:07;78280.16;;;-144.77;88.69
6449;BME280;3257;52.298;13.690;2022-12-10T04:39:34;78270.22;;;-144.77;88.72
6449;BME280;3257;52.298;13.690;2022-12-10T04:42:00;78272.19;;;-144.77;88.48
6449;BME280;3257;52.298;13.690;2022-12-10T04:44:27;78284.13;;;-144.77;88.72
6449;BME280;3257;52.298;13.690;2022-12-10T04:46:53;78288.09;;;-144.77;88.91
6449;BME280;3257;52.298;13.690;2022-12-10T04:49:20;78290.09;;;-144.77;88.68
6449;BME280;3257;52.298;13.690;2022-12-10T04:51:47;78274.19;;;-144.77;89.44
6449;BME280;3257;52.298;13.690;2022-12-10T04:54:13;78254.31;;;-144.77;88.96
6449;BME280;3257;52.298;13.690;2022-12-10T04:56:40;78260.28;;;-144.77;88.54
6449;BME280;3257;52.298;13.690;2022-12-10T04:59:07;78276.19;;;-144.77;88.69
6449;BME280;3257;52.298;13.690;2022-12-10T05:01:35;78260.28;;;-144.77;88.77
6449;BME280;3257;52.298;13.690;2022-12-10T05:04:03;78260.28;;;-144.77;88.53
6449;BME280;3257;52.298;13.690;2022-12-10T05:06:31;78284.13;;;-144.77;88.73
6449;BME280;3257;52.298;13.690;2022-12-10T05:08:58;78302.03;;;-144.77;88.47
6449;BME280;3257;52.298;13.690;2022-12-10T05:11:27;78296.06;;;-144.77;89.04
6449;BME280;3257;52.298;13.690;2022-12-10T05:13:54;78313.94;;;-144.77;89.21
6449;BME280;3257;52.298;13.690;2022-12-10T05:16:22;78308.00;;;-144.77;88.92
6449;BME280;3257;52.298;13.690;2022-12-10T05:18:50;78306.00;;;-144.77;88.95
6449;BME280;3257;52.298;13.690;2022-12-10T05:21:18;78311.97;;;-144.77;89.16
6449;BME280;3257;52.298;13.690;2022-12-10T05:23:47;78304.00;;;-144.77;89.62
6449;BME280;3257;52.298;13.690;2022-12-10T05:26:17;78276.19;;;-144.77;89.16
6449;BME280;3257;52.298;13.690;2022-12-10T05:28:49;78286.13;;;-144.77;89.33
6449;BME280;3257;52.298;13.690;2022-12-10T05:33:46;78276.19;;;-144.77;88.72
6449;BME280;3257;52.298;13.690;2022-12-10T05:36:15;78272.19;;;-144.77;88.98
6449;BME280;3257;52.298;13.690;2022-12-10T05:38:43;78274.19;;;-144.77;88.67
6449;BME280;3257;52.298;13.690;2022-12-10T05:41:21;78250.34;;;-144.77;88.26
6449;BME280;3257;52.298;13.690;2022-12-10T05:43:48;78264.25;;;-144.77;88.16
6449;BME280;3257;52.298;13.690;2022-12-10T05:46:18;78266.25;;;-144.77;88.44
6449;BME280;3257;52.298;13.690;2022-12-10T05:48:45;78274.19;;;-144.77;88.03
6449;BME280;3257;52.298;13.690;2022-12-10T05:51:15;78270.22;;;-144.77;88.33
6449;BME280;3257;52.298;13.690;2022-12-10T05:53:42;78246.34;;;-144.77;87.84
6449;BME280;3257;52.298;13.690;2022-12-10T05:56:14;78240.41;;;-144.77;87.35
6449;BME280;3257;52.298;13.690;2022-12-10T05:58:43;78256.28;;;-144.77;87.42
6449;BME280;3257;52.298;13.690;2022-12-10T06:01:13;78274.19;;;-144.77;87.49
6449;BME280;3257;52.298;13.690;2022-12-10T06:03:40;78272.19;;;-144.77;87.34
6449;BME280;3257;52.298;13.690;2022-12-10T06:06:07;78260.28;;;-144.77;87.56
6449;BME280;3257;52.298;13.690;2022-12-10T06:08:34;78256.28;;;-144.77;87.59
6449;BME280;3257;52.298;13.690;2022-12-10T06:11:06;78232.44;;;-144.77;87.43
6449;BME280;3257;52.298;13.690;2022-12-10T06:13:33;78238.41;;;-144.77;87.42
6449;BME280;3257;52.298;13.690;2022-12-10T06:16:04;78254.31;;;-144.77;87.46
6449;BME280;3257;52.298;13.690;2022-12-10T06:18:33;78268.22;;;-144.77;87.34
6449;BME280;3257;52.298;13.690;2022-12-10T06:21:03;78268.22;;;-144.77;87.80
6449;BME280;3257;52.298;13.690;2022-12-10T06:23:30;78252.31;;;-144.77;87.07
6449;BME280;3257;52.298;13.690;2022-12-10T06:25:56;78274.19;;;-144.77;88.04
6449;BME280;3257;52.298;13.690;2022-12-10T06:28:23;78282.16;;;-144.77;87.83
6449;BME280;3257;52.298;13.690;2022-12-10T06:30:49;78270.22;;;-144.77;88.22
6449;BME280;3257;52.298;13.690;2022-12-10T06:33:21;78284.13;;;-144.77;88.26
6449;BME280;3257;52.298;13.690;2022-12-10T06:35:48;78282.16;;;-144.77;88.41
6449;BME280;3257;52.298;13.690;2022-12-10T06:38:14;78274.19;;;-144.77;88.84
6449;BME280;3257;52.298;13.690;2022-12-10T06:40:40;78274.19;;;-144.77;88.42
6449;BME280;3257;52.298;13.690;2022-12-10T06:43:07;78276.19;;;-144.77;88.37
6449;BME280;3257;52.298;13.690;2022-12-10T06:45:33;78260.28;;;-144.77;87.85
6449;BME280;3257;52.298;13.690;2022-12-10T06:47:59;78252.31;;;-144.77;87.68
6449;BME280;3257;52.298;13.690;2022-12-10T06:50:26;78262.25;;;-144.77;87.38
6449;BME280;3257;52.298;13.690;2022-12-10T06:52:52;78248.34;;;-144.77;87.14
6449;BME280;3257;52.298;13.690;2022-12-10T06:55:20;78248.34;;;-144.77;86.84
6449;BME280;3257;52.298;13.690;2022-12-10T06:57:46;78260.28;;;-144.77;87.05
6449;BME280;3257;52.298;13.690;2022-12-10T07:00:13;78246.34;;;-144.77;86.47
6449;BME280;3257;52.298;13.690;2022-12-10T07:02:47;78222.50;;;-144.77;86.22
6449;BME280;3257;52.298;13.690;2022-12-10T07:05:13;78242.38;;;-144.77;86.12
6449;BME280;3257;52.298;13.690;2022-12-10T07:07:40;78226.47;;;-144.77;86.30
6449;BME280;3257;52.298;13.690;2022-12-10T07:10:07;78216.53;;;-144.77;86.20
6449;BME280;3257;52.298;13.690;2022-12-10T07:12:34;78224.50;;;-144.77;85.47
6449;BME280;3257;52.298;13.690;2022-12-10T07:15:00;78198.66;;;-144.77;84.76
6449;BME280;3257;52.298;13.690;2022-12-10T07:17:26;78194.66;;;-144.77;84.56
6449;BME280;3257;52.298;13.690;2022-12-10T07:19:53;78178.75;;;-144.77;84.41
6449;BME280;3257;52.298;13.690;2022-12-10T07:22:19;78184.72;;;-144.77;84.20
6449;BME280;3257;52.298;13.690;2022-12-10T07:24:48;78170.81;;;-144.77;84.31
6449;BME280;3257;52.298;13.690;2022-12-10T07:27:14;78170.81;;;-144.77;84.02
6449;BME280;3257;52.298;13.690;2022-12-10T07:29:41;78174.78;;;-144.77;83.79
6449;BME280;3257;52.298;13.690;2022-12-10T07:32:07;78162.84;;;-144.77;83.50
6449;BME280;3257;52.298;13.690;2022-12-10T07:34:34;78186.72;;;-144.77;83.92
6449;BME280;3257;52.298;13.690;2022-12-10T07:37:00;78180.75;;;-144.77;84.68
6449;BME280;3257;52.298;13.690;2022-12-10T07:39:26;78188.69;;;-144.77;84.31
6449;BME280;3257;52.298;13.690;2022-12-10T07:41:53;78204.59;;;-144.77;84.61
6449;BME280;3257;52.298;13.690;2022-12-10T07:44:21;78210.56;;;-144.77;84.89
6449;BME280;3257;52.298;13.690;2022-12-10T07:46:50;78192.69;;;-144.77;84.57
6449;BME280;3257;52.298;13.690;2022-12-10T07:49:17;78184.72;;;-144.77;84.00
6449;BME280;3257;52.298;13.690;2022-12-10T07:51:45;78188.69;;;-144.77;84.44
6449;BME280;3257;52.298;13.690;2022-12-10T07:54:12;78196.66;;;-144.77;84.98
6449;BME280;3257;52.298;13.690;2022-12-10T07:56:39;78200.63;;;-144.77;84.92
6449;BME280;3257;52.298;13.690;2022-12-10T07:59:05;78218.53;;;-144.77;85.22
6449;BME280;3257;52.298;13.690;2022-12-10T08:01:32;78206.59;;;-144.77;85.78
6449;BME280;3257;52.298;13.690;2022-12-10T08:03:59;78194.66;;;-144.77;85.56
6449;BME280;3257;52.298;13.690;2022-12-10T08:06:27;78216.53;;;-144.77;85.63
6449;BME280;3257;52.298;13.690;2022-12-10T08:08:55;78234.44;;;-144.77;85.57
6449;BME280;3257;52.298;13.690;2022-12-10T08:11:22;78220.50;;;-144.77;85.59
6449;BME280;3257;52.298;13.690;2022-12-10T08:13:49;78234.44;;;-144.77;85.66
6449;BME280;3257;52.298;13.690;2022-12-10T08:16:24;78256.28;;;-144.77;86.34
6449;BME280;3257;52.298;13.690;2022-12-10T08:18:55;78244.38;;;-144.77;86.23
6449;BME280;3257;52.298;13.690;2022-12-10T08:21:24;78244.38;;;-144.77;86.36
6449;BME280;3257;52.298;13.690;2022-12-10T08:23:51;78244.38;;;-144.77;86.29
6449;BME280;3257;52.298;13.690;2022-12-10T08:26:20;78234.44;;;-144.77;85.98
6449;BME280;3257;52.298;13.690;2022-12-10T08:28:49;78246.34;;;-144.77;86.44
6449;BME280;3257;52.298;13.690;2022-12-10T08:31:17;78240.41;;;-144.77;86.78
6449;BME280;3257;52.298;13.690;2022-12-10T10:17:35;78081.34;;;-144.77;84.07
6449;BME280;3257;52.298;13.690;2022-12-10T10:20:03;78087.31;;;-144.77;84.32
6449;BME280;3257;52.298;13.690;2022-12-10T10:22:31;78099.25;;;-144.77;84.75
6449;BME280;3257;52.298;13.690;2022-12-10T10:25:01;78081.34;;;-144.77;84.52
6449;BME280;3257;52.298;13.690;2022-12-10T10:27:30;78069.41;;;-144.77;84.49
6449;BME280;3257;52.298;13.690;2022-12-10T10:30:00;78103.22;;;-144.77;84.55
6449;BME280;3257;52.298;13.690;2022-12-10T10:32:46;78073.41;;;-144.77;84.31
6449;BME280;3257;52.298;13.690;2022-12-10T10:37:47;78077.38;;;-144.77;84.70
6449;BME280;3257;52.298;13.690;2022-12-10T10:40:59;78081.34;;;-144.77;84.79
6449;BME280;3257;52.298;13.690;2022-12-10T10:43:47;78073.41;;;-144.77;84.15
6449;BME280;3257;52.298;13.690;2022-12-10T10:46:21;78039.59;;;-144.77;84.03
6449;BME280;3257;52.298;13.690;2022-12-10T10:48:49;78039.59;;;-144.77;84.14
6449;BME280;3257;52.298;13.690;2022-12-10T10:51:22;78051.53;;;-144.77;84.10
6449;BME280;3257;52.298;13.690;2022-12-10T10:53:53;78061.47;;;-144.77;84.19
6449;BME280;3257;52.298;13.690;2022-12-10T10:56:29;78061.47;;;-144.77;83.84
6449;BME280;3257;52.298;13.690;2022-12-10T10:59:19;78035.63;;;-144.77;83.90
6449;BME280;3257;52.298;13.690;2022-12-10T11:01:54;78049.53;;;-144.77;84.01
6449;BME280;3257;52.298;13.690;2022-12-10T11:04:37;78049.53;;;-144.77;84.47
6449;BME280;3257;52.298;13.690;2022-12-10T11:07:05;78033.63;;;-144.77;83.97
6449;BME280;3257;52.298;13.690;2022-12-10T11:09:41;78017.72;;;-144.77;83.88
6449;BME280;3257;52.298;13.690;2022-12-10T11:12:35;78015.75;;;-144.77;84.01
6449;BME280;3257;52.298;13.690;2022-12-10T11:15:28;78015.75;;;-144.77;84.33
6449;BME280;3257;52.298;13.690;2022-12-10T11:17:56;77989.91;;;-144.77;83.12
6449;BME280;3257;52.298;13.690;2022-12-10T11:20:31;77977.97;;;-144.77;83.07
6449;BME280;3257;52.298;13.690;2022-12-10T11:23:10;77972.00;;;-144.77;82.12
6449;BME280;3257;52.298;13.690;2022-12-10T11:49:03;78039.59;;;-144.77;83.82
6449;BME280;3257;52.298;13.690;2022-12-10T11:51:46;78005.81;;;-144.77;83.52
6449;BME280;3257;52.298;13.690;2022-12-10T11:54:30;78013.75;;;-144.77;83.30
6449;BME280;3257;52.298;13.690;2022-12-10T11:57:28;78019.72;;;-144.77;83.31
6449;BME280;3257;52.298;13.690;2022-12-10T12:03:16;78019.72;;;-144.77;82.92
6449;BME280;3257;52.298;13.690;2022-12-10T12:09:07;78043.56;;;-144.77;83.47
6449;BME280;3257;52.298;13.690;2022-12-10T12:11:58;78031.66;;;-144.77;83.34
6449;BME280;3257;52.298;13.690;2022-12-10T12:14:33;78027.66;;;-144.77;82.97
6449;BME280;3257;52.298;13.690;2022-12-10T12:17:09;78029.66;;;-144.77;82.81
6449;BME280;3257;52.298;13.690;2022-12-10T12:19:44;78049.53;;;-144.77;82.67
6449;BME280;3257;52.298;13.690;2022-12-10T12:22:25;78053.50;;;-144.77;82.94
6449;BME280;3257;52.298;13.690;2022-12-10T12:25:02;78041.59;;;-144.77;83.50
6449;BME280;3257;52.298;13.690;2022-12-10T12:27:36;78037.59;;;-144.77;83.29
6449;BME280;3257;52.298;13.690;2022-12-10T12:30:16;78025.69;;;-144.77;82.62
6449;BME280;3257;52.298;13.690;2022-12-10T12:35:43;78027.66;;;-144.77;82.54
6449;BME280;3257;52.298;13.690;2022-12-10T12:38:26;77995.84;;;-144.77;82.04
6449;BME280;3257;52.298;13.690;2022-12-10T12:41:00;78013.75;;;-144.77;82.61
6449;BME280;3257;52.298;13.690;2022-12-10T12:43:44;78009.78;;;-144.77;82.43
6449;BME280;3257;52.298;13.690;2022-12-10T12:46:19;78017.72;;;-144.77;82.99
6449;BME280;3257;52.298;13.690;2022-12-10T12:48:55;78053.50;;;-144.77;82.38
6449;BME280;3257;52.298;13.690;2022-12-10T12:51:28;78049.53;;;-144.77;82.86
6449;BME280;3257;52.298;13.690;2022-12-10T12:53:56;78049.53;;;-144.77;82.84
6449;BME280;3257;52.298;13.690;2022-12-10T12:56:29;78045.56;;;-144.77;82.81
6449;BME280;3257;52.298;13.690;2022-12-10T13:05:16;78083.34;;;-144.77;82.70
6449;BME280;3257;52.298;13.690;2022-12-10T13:13:35;78067.44;;;-144.77;83.43
6449;BME280;3257;52.298;13.690;2022-12-10T13:16:45;78081.34;;;-144.77;84.12
6449;BME280;3257;52.298;13.690;2022-12-10T13:32:21;78097.25;;;-144.77;84.57
6449;BME280;3257;52.298;13.690;2022-12-10T13:35:24;78115.16;;;-144.77;84.69
6449;BME280;3257;52.298;13.690;2022-12-10T13:43:24;78137.00;;;-144.77;85.02
6449;BME280;3257;52.298;13.690;2022-12-10T13:48:57;78139.00;;;-144.77;85.51
6449;BME280;3257;52.298;13.690;2022-12-10T13:51:39;78127.06;;;-144.77;85.03
6449;BME280;3257;52.298;13.690;2022-12-10T13:54:29;78150.94;;;-144.77;85.49
6449;BME280;3257;52.298;13.690;2022-12-10T13:57:18;78144.97;;;-144.77;85.45
6449;BME280;3257;52.298;13.690;2022-12-10T14:00:03;78146.94;;;-144.77;85.02
6449;BME280;3257;52.298;13.690;2022-12-10T14:08:23;78164.84;;;-144.77;85.50
6449;BME280;3257;52.298;13.690;2022-12-10T14:10:52;78168.81;;;-144.77;85.97
6449;BME280;3257;52.298;13.690;2022-12-10T14:13:30;78182.75;;;-144.77;86.04
6449;BME280;3257;52.298;13.690;2022-12-10T14:16:00;78180.75;;;-144.77;86.27
6449;BME280;3257;52.298;13.690;2022-12-10T14:18:28;78186.72;;;-144.77;86.23
6449;BME280;3257;52.298;13.690;2022-12-10T14:20:55;78176.78;;;-144.77;86.44
6449;BME280;3257;52.298;13.690;2022-12-10T14:26:05;78194.66;;;-144.77;86.31
6449;BME280;3257;52.298;13.690;2022-12-10T14:28:31;78172.78;;;-144.77;86.14
6449;BME280;3257;52.298;13.690;2022-12-10T14:30:59;78210.56;;;-144.77;85.99
6449;BME280;3257;52.298;13.690;2022-12-10T14:33:26;78202.63;;;-144.77;86.64
6449;BME280;3257;52.298;13.690;2022-12-10T14:35:53;78202.63;;;-144.77;86.34
6449;BME280;3257;52.298;13.690;2022-12-10T14:38:23;78186.72;;;-144.77;86.27
6449;BME280;3257;52.298;13.690;2022-12-10T14:40:53;78200.63;;;-144.77;87.07
6449;BME280;3257;52.298;13.690;2022-12-10T14:43:22;78196.66;;;-144.77;86.85
6449;BME280;3257;52.298;13.690;2022-12-10T14:45:53;78206.59;;;-144.77;86.56
6449;BME280;3257;52.298;13.690;2022-12-10T14:48:22;78212.56;;;-144.77;86.60
6449;BME280;3257;52.298;13.690;2022-12-10T14:50:50;78220.50;;;-144.77;86.82
6449;BME280;3257;52.298;13.690;2022-12-10T14:53:22;78206.59;;;-144.77;86.74
6449;BME280;3257;52.298;13.690;2022-12-10T14:55:59;78210.56;;;-144.77;86.67
6449;BME280;3257;52.298;13.690;2022-12-10T14:58:34;78216.53;;;-144.77;85.89
6449;BME280;3257;52.298;13.690;2022-12-10T15:01:26;78226.47;;;-144.77;86.42
6449;BME280;3257;52.298;13.690;2022-12-10T15:03:54;78226.47;;;-144.77;86.67
6449;BME280;3257;52.298;13.690;2022-12-10T15:06:22;78234.44;;;-144.77;86.84
6449;BME280;3257;52.298;13.690;2022-12-10T15:08:49;78260.28;;;-144.77;87.25
6449;BME280;3257;52.298;13.690;2022-12-10T15:11:20;78256.28;;;-144.77;87.02
6449;BME280;3257;52.298;13.690;2022-12-10T15:13:51;78254.31;;;-144.77;87.16
6449;BME280;3257;52.298;13.690;2022-12-10T15:18:54;78260.28;;;-144.77;86.75
6449;BME280;3257;52.298;13.690;2022-12-10T15:21:24;78260.28;;;-144.77;86.42
6449;BME280;3257;52.298;13.690;2022-12-10T15:24:42;78266.25;;;-144.77;86.84
6449;BME280;3257;52.298;13.690;2022-12-10T15:27:00;78280.16;;;-144.77;86.94
6449;BME280;3257;52.298;13.690;2022-12-10T15:32:15;78270.22;;;-144.77;86.71
6449;BME280;3257;52.298;13.690;2022-12-10T15:34:49;78276.19;;;-144.77;86.84
6449;BME280;3257;52.298;13.690;2022-12-10T15:37:25;78274.19;;;-144.77;87.23
6449;BME280;3257;52.298;13.690;2022-12-10T15:39:57;78282.16;;;-144.77;87.40
6449;BME280;3257;52.298;13.690;2022-12-10T15:45:11;78290.09;;;-144.77;87.25
6449;BME280;3257;52.298;13.690;2022-12-10T15:47:38;78268.22;;;-144.77;86.59
6449;BME280;3257;52.298;13.690;2022-12-10T15:50:05;78278.16;;;-144.77;87.33
6449;BME280;3257;52.298;13.690;2022-12-10T15:52:32;78282.16;;;-144.77;87.19
6449;BME280;3257;52.298;13.690;2022-12-10T15:54:58;78280.16;;;-144.77;86.95
6449;BME280;3257;52.298;13.690;2022-12-10T15:57:33;78296.06;;;-144.77;87.00
6449;BME280;3257;52.298;13.690;2022-12-10T16:00:08;78298.06;;;-144.77;87.27
6449;BME280;3257;52.298;13.690;2022-12-10T16:03:08;78280.16;;;-144.77;87.12
6449;BME280;3257;52.298;13.690;2022-12-10T16:05:38;78282.16;;;-144.77;86.67
6449;BME280;3257;52.298;13.690;2022-12-10T16:08:17;78278.16;;;-144.77;86.70
6449;BME280;3257;52.298;13.690;2022-12-10T16:10:45;78270.22;;;-144.77;85.96
6449;BME280;3257;52.298;13.690;2022-12-10T16:13:17;78276.19;;;-144.77;86.31
6449;BME280;3257;52.298;13.690;2022-12-10T16:21:08;78315.94;;;-144.77;86.74
6449;BME280;3257;52.298;13.690;2022-12-10T16:23:35;78300.03;;;-144.77;86.94
6449;BME280;3257;52.298;13.690;2022-12-10T16:26:01;78304.00;;;-144.77;86.51
6449;BME280;3257;52.298;13.690;2022-12-10T16:28:28;78298.06;;;-144.77;86.29
6449;BME280;3257;52.298;13.690;2022-12-10T16:30:56;78286.13;;;-144.77;86.44
6449;BME280;3257;52.298;13.690;2022-12-10T16:33:24;78296.06;;;-144.77;86.34
6449;BME280;3257;52.298;13.690;2022-12-10T16:35:52;78290.09;;;-144.77;86.63
6449;BME280;3257;52.298;13.690;2022-12-10T16:38:20;78290.09;;;-144.77;87.02